Time;durP1;ratioP1;P1;durP2;ratioP2;P2;SDS_P1;SDS_P2;PMS_P1;PMS_P2;Temp;Humidity;BMP_temperature;BMP_pressure;BME280_temperature;BME280_humidity;BME280_pressure;Samples;Min_cycle;Max_cycle;Signal;HPM_P1;HPM_P2
2022/11/07 00:01:46;;;;;;;6.72;3.42;;;11.40;99.90;;;;;;6123186;23;20154;-52
2022/11/07 00:04:12;;;;;;;7.18;3.25;;;11.40;99.90;;;;;;6123153;23;20146;-54
2022/11/07 00:06:38;;;;;;;6.60;3.33;;;11.40;99.90;;;;;;6123139;23;20157;-54
2022/11/07 00:09:04;;;;;;;5.53;3.38;;;11.40;99.90;;;;;;6123056;23;20613;-53
2022/11/07 00:11:30;;;;;;;4.35;2.80;;;11.40;99.90;;;;;;6122763;23;20156;-53
2022/11/07 00:13:55;;;;;;;6.95;3.28;;;11.30;99.90;;;;;;6073204;23;20481;-53
2022/11/07 00:16:21;;;;;;;6.15;3.13;;;11.30;99.90;;;;;;6097450;23;20481;-53
2022/11/07 00:18:47;;;;;;;8.27;4.30;;;11.40;99.90;;;;;;6123066;23;20488;-51
2022/11/07 00:21:13;;;;;;;6.88;3.45;;;11.30;99.90;;;;;;6123113;23;20477;-52
2022/11/07 00:23:40;;;;;;;7.00;3.50;;;11.30;99.90;;;;;;6123115;23;20161;-51
2022/11/07 00:26:08;;;;;;;6.93;4.15;;;11.30;99.90;;;;;;6122747;23;20472;-54
2022/11/07 00:28:36;;;;;;;8.32;3.53;;;11.30;99.90;;;;;;6096937;23;20157;-54
2022/11/07 00:31:03;;;;;;;5.00;2.92;;;11.20;99.90;;;;;;6123050;23;20232;-52
2022/11/07 00:33:29;;;;;;;6.45;3.53;;;11.30;99.90;;;;;;6122683;23;20596;-52
2022/11/07 00:35:54;;;;;;;6.30;3.38;;;11.20;99.90;;;;;;6123112;23;20164;-54
2022/11/07 00:38:20;;;;;;;7.85;3.58;;;11.30;99.90;;;;;;6122669;23;20229;-53
2022/11/07 00:41:00;;;;;;;7.65;3.75;;;11.30;99.90;;;;;;6122983;23;20154;-54
2022/11/07 00:43:26;;;;;;;8.02;3.90;;;11.30;99.90;;;;;;6122829;23;20176;-54
2022/11/07 00:45:52;;;;;;;10.40;3.88;;;11.20;99.90;;;;;;6123178;23;20153;-55
2022/11/07 00:48:18;;;;;;;9.32;4.40;;;11.20;99.90;;;;;;6122910;23;20195;-54
2022/11/07 00:50:44;;;;;;;8.75;3.67;;;11.20;99.90;;;;;;6122838;23;20691;-55
2022/11/07 00:53:10;;;;;;;9.95;4.00;;;11.30;99.90;;;;;;6122900;23;20225;-53
2022/11/07 00:55:35;;;;;;;9.82;4.00;;;11.20;99.90;;;;;;6097130;23;20237;-54
2022/11/07 00:58:01;;;;;;;8.50;3.47;;;11.20;99.90;;;;;;6122627;23;20150;-51
2022/11/07 01:00:27;;;;;;;8.65;3.72;;;11.20;99.90;;;;;;6097280;23;20157;-54
2022/11/07 01:05:40;;;;;;;11.30;3.70;;;11.30;99.90;;;;;;6138233;23;20157;-54
2022/11/07 01:08:05;;;;;;;8.32;3.53;;;11.30;99.90;;;;;;6122877;23;20160;-54
2022/11/07 01:10:32;;;;;;;9.02;3.88;;;11.20;99.90;;;;;;6122463;23;20264;-53
2022/11/07 01:12:57;;;;;;;6.05;3.30;;;11.30;99.90;;;;;;6122924;23;20154;-51
2022/11/07 01:15:23;;;;;;;11.10;4.05;;;11.30;99.90;;;;;;6097169;23;20153;-54
2022/11/07 01:17:49;;;;;;;10.23;3.70;;;11.30;99.90;;;;;;6096928;23;20172;-54
2022/11/07 01:20:14;;;;;;;10.25;3.70;;;11.30;99.90;;;;;;6122841;23;20153;-54
2022/11/07 01:22:40;;;;;;;12.48;4.07;;;11.30;99.90;;;;;;6122546;23;20149;-54
2022/11/07 01:25:07;;;;;;;9.18;4.03;;;11.40;99.90;;;;;;6122880;23;20177;-54
2022/11/07 01:27:32;;;;;;;10.80;4.38;;;11.30;99.90;;;;;;6096963;23;20165;-56
2022/11/07 01:29:58;;;;;;;12.80;4.25;;;11.30;99.90;;;;;;6122704;23;20190;-54
2022/11/07 01:32:24;;;;;;;9.52;3.90;;;11.30;99.90;;;;;;6097210;23;20149;-53
2022/11/07 01:34:49;;;;;;;10.07;3.92;;;11.30;99.90;;;;;;6122777;23;20465;-53
2022/11/07 01:37:15;;;;;;;9.93;3.78;;;11.30;99.90;;;;;;6097115;23;20159;-54
2022/11/07 01:39:41;;;;;;;12.93;3.78;;;11.30;99.90;;;;;;6097076;23;20240;-54
2022/11/07 01:42:11;;;;;;;12.40;3.90;;;11.40;99.90;;;;;;6121886;23;20154;-54
2022/11/07 01:44:39;;;;;;;7.13;3.67;;;11.40;99.90;;;;;;6122588;23;20172;-52
2022/11/07 01:47:06;;;;;;;9.18;3.72;;;11.40;99.90;;;;;;6122767;23;20146;-53
2022/11/07 01:49:35;;;;;;;9.85;3.53;;;11.50;99.90;;;;;;6096895;23;20312;-54
2022/11/07 01:52:23;;;;;;;11.68;3.63;;;11.60;99.90;;;;;;6096761;23;20200;-53
2022/11/07 01:54:58;;;;;;;9.25;3.50;;;11.60;99.90;;;;;;6121459;23;20157;-53
2022/11/07 01:57:33;;;;;;;10.63;3.53;;;11.60;99.90;;;;;;6122687;23;20215;-51
2022/11/07 02:00:03;;;;;;;10.20;3.28;;;11.60;99.90;;;;;;6122721;23;20138;-51
2022/11/07 02:02:29;;;;;;;12.40;3.67;;;11.60;99.90;;;;;;6122471;23;20232;-51
2022/11/07 02:04:58;;;;;;;13.13;3.30;;;11.60;99.90;;;;;;6122831;23;20150;-54
2022/11/07 02:07:24;;;;;;;12.07;3.88;;;11.70;99.90;;;;;;6122363;23;20149;-52
2022/11/07 02:09:53;;;;;;;11.07;3.78;;;11.80;99.90;;;;;;6122462;23;20569;-53
2022/11/07 02:12:21;;;;;;;9.32;3.55;;;11.80;99.90;;;;;;6122389;23;20173;-54
2022/11/07 02:14:47;;;;;;;8.95;3.30;;;11.80;99.90;;;;;;6122539;23;20591;-52
2022/11/07 02:17:14;;;;;;;12.57;3.60;;;11.80;99.90;;;;;;6122531;23;20192;-51
2022/11/07 02:19:46;;;;;;;9.43;3.38;;;11.70;99.90;;;;;;6122588;23;20207;-51
2022/11/07 02:22:39;;;;;;;14.85;3.78;;;11.70;99.90;;;;;;6122542;23;20149;-54
2022/11/07 02:25:08;;;;;;;11.88;3.50;;;11.70;99.90;;;;;;6122663;23;20196;-52
2022/11/07 02:27:34;;;;;;;11.80;3.70;;;11.70;99.90;;;;;;6096716;23;20154;-51
2022/11/07 02:30:11;;;;;;;16.02;4.40;;;11.70;99.90;;;;;;6122352;23;20258;-53
2022/11/07 02:32:37;;;;;;;10.65;4.22;;;11.80;99.90;;;;;;6122447;23;20146;-53
2022/11/07 02:35:25;;;;;;;11.60;3.97;;;11.90;99.90;;;;;;6122053;23;20484;-52
2022/11/07 02:37:51;;;;;;;9.20;3.47;;;11.80;99.90;;;;;;6122062;23;20154;-51
2022/11/07 02:40:17;;;;;;;9.65;3.22;;;11.80;99.90;;;;;;6122439;23;20153;-54
2022/11/07 02:42:42;;;;;;;13.60;4.10;;;11.90;99.90;;;;;;6122141;23;20157;-54
2022/11/07 02:45:23;;;;;;;8.25;3.47;;;11.90;99.90;;;;;;6122634;23;20230;-53
2022/11/07 02:47:49;;;;;;;11.70;3.90;;;11.90;99.90;;;;;;6122063;23;20138;-54
2022/11/07 02:50:15;;;;;;;12.23;4.07;;;11.90;99.90;;;;;;6122112;23;20631;-54
2022/11/07 02:52:41;;;;;;;12.23;3.67;;;11.80;99.90;;;;;;6122940;23;20157;-53
2022/11/07 02:55:08;;;;;;;16.45;4.45;;;11.90;99.90;;;;;;6123040;23;20527;-51
2022/11/07 02:57:34;;;;;;;8.98;3.95;;;11.90;99.90;;;;;;6123073;23;20156;-55
2022/11/07 03:00:00;;;;;;;14.20;4.63;;;11.90;99.90;;;;;;6097450;23;20161;-54
2022/11/07 03:02:25;;;;;;;13.32;3.67;;;12.00;99.90;;;;;;6123435;23;20149;-53
2022/11/07 03:04:51;;;;;;;12.13;3.92;;;11.90;99.90;;;;;;6123891;23;20576;-55
2022/11/07 03:07:17;;;;;;;16.63;3.92;;;11.90;99.90;;;;;;6123492;23;20172;-54
2022/11/07 03:09:43;;;;;;;11.63;3.85;;;11.90;99.90;;;;;;6123303;23;20612;-53
2022/11/07 03:12:09;;;;;;;11.63;3.97;;;12.00;99.90;;;;;;6123378;23;20584;-54
2022/11/07 03:14:34;;;;;;;11.45;3.72;;;12.00;99.90;;;;;;6097103;23;20168;-54
2022/11/07 03:17:00;;;;;;;15.27;4.35;;;12.00;99.90;;;;;;6097400;23;20581;-53
2022/11/07 03:19:25;;;;;;;12.63;3.70;;;12.00;99.90;;;;;;6123337;23;20153;-54
2022/11/07 03:21:51;;;;;;;12.75;3.42;;;12.00;99.90;;;;;;6073591;23;20161;-54
2022/11/07 03:24:17;;;;;;;15.85;4.25;;;11.90;99.90;;;;;;6123420;23;20464;-53
2022/11/07 03:26:43;;;;;;;11.50;3.35;;;11.90;99.90;;;;;;6123125;23;20149;-54
2022/11/07 03:29:09;;;;;;;14.30;4.20;;;11.90;99.90;;;;;;6097394;23;20576;-54
2022/11/07 03:31:35;;;;;;;13.43;3.72;;;11.90;99.90;;;;;;6097458;23;20177;-54
2022/11/07 03:34:01;;;;;;;15.43;4.22;;;12.00;99.90;;;;;;6123548;23;20484;-54
2022/11/07 03:36:27;;;;;;;12.20;3.33;;;11.90;99.90;;;;;;6122932;23;20236;-53
2022/11/07 03:38:52;;;;;;;15.50;4.13;;;11.80;99.90;;;;;;6097324;23;20172;-53
2022/11/07 03:41:18;;;;;;;14.13;4.05;;;11.70;99.90;;;;;;6123281;23;20160;-54
2022/11/07 03:43:44;;;;;;;10.68;3.63;;;11.80;99.90;;;;;;6122999;23;20192;-55
2022/11/07 03:46:14;;;;;;;13.23;4.28;;;11.90;99.90;;;;;;6123217;23;20158;-52
2022/11/07 03:48:42;;;;;;;13.18;3.88;;;11.90;99.90;;;;;;6073311;23;20178;-54
2022/11/07 03:51:08;;;;;;;8.60;3.60;;;11.80;99.90;;;;;;6123434;23;20188;-54
2022/11/07 03:53:34;;;;;;;12.00;3.85;;;11.90;99.90;;;;;;6123091;23;20158;-52
2022/11/07 03:56:09;;;;;;;15.10;4.55;;;11.80;99.90;;;;;;6097362;23;20581;-51
2022/11/07 03:58:35;;;;;;;18.27;4.30;;;11.90;99.90;;;;;;6123138;23;20145;-52
2022/11/07 04:01:01;;;;;;;13.15;3.97;;;12.00;99.90;;;;;;6123220;23;20227;-53
2022/11/07 04:03:27;;;;;;;14.23;3.67;;;12.10;99.90;;;;;;6096882;23;20153;-51
2022/11/07 04:05:52;;;;;;;13.23;3.83;;;12.10;99.90;;;;;;6097518;23;20177;-54
2022/11/07 04:08:18;;;;;;;11.40;3.78;;;12.10;99.90;;;;;;6097102;23;20185;-54
2022/11/07 04:10:44;;;;;;;14.25;3.83;;;12.00;99.90;;;;;;6097187;23;20181;-53
2022/11/07 04:18:38;;;;;;;10.48;3.78;;;12.20;99.90;;;;;;6122833;23;20185;-53
2022/11/07 04:21:04;;;;;;;12.50;4.18;;;12.20;99.90;;;;;;6123078;23;20150;-54
2022/11/07 04:23:29;;;;;;;11.57;3.75;;;12.20;99.90;;;;;;6097417;23;20173;-55
2022/11/07 04:28:39;;;;;;;14.60;4.10;;;12.10;99.90;;;;;;6122743;23;20157;-54
2022/11/07 04:31:05;;;;;;;10.52;3.38;;;12.20;99.90;;;;;;6097428;23;20477;-54
2022/11/07 04:33:30;;;;;;;11.93;3.42;;;12.10;99.90;;;;;;6122682;23;20154;-54
2022/11/07 04:35:56;;;;;;;12.20;4.03;;;12.20;99.90;;;;;;6097238;23;20519;-51
2022/11/07 04:38:22;;;;;;;12.95;3.58;;;12.10;99.90;;;;;;6122916;23;20646;-52
2022/11/07 04:40:54;;;;;;;12.05;3.35;;;12.20;99.90;;;;;;6123002;23;20233;-52
2022/11/07 04:43:21;;;;;;;10.55;3.70;;;12.30;99.90;;;;;;6097060;23;20173;-55
2022/11/07 04:45:47;;;;;;;11.98;3.63;;;12.20;99.90;;;;;;6123097;23;20153;-51
2022/11/07 04:48:13;;;;;;;11.10;3.78;;;12.20;99.90;;;;;;6122932;23;20179;-50
2022/11/07 04:50:39;;;;;;;12.82;3.50;;;12.30;99.90;;;;;;6097215;23;20262;-52
2022/11/07 04:53:04;;;;;;;15.38;4.20;;;12.30;99.90;;;;;;6097300;23;20157;-51
2022/11/07 04:55:30;;;;;;;12.70;4.15;;;12.20;99.90;;;;;;6122994;23;20195;-51
2022/11/07 04:57:57;;;;;;;11.73;3.95;;;12.10;99.90;;;;;;6097255;23;20203;-54
2022/11/07 05:00:23;;;;;;;10.75;4.35;;;12.20;99.90;;;;;;6121194;23;20481;-51
2022/11/07 05:02:49;;;;;;;15.40;4.15;;;12.10;99.90;;;;;;6122093;23;20153;-53
2022/11/07 05:05:16;;;;;;;12.82;4.28;;;12.10;99.90;;;;;;6096876;23;20154;-54
2022/11/07 05:07:43;;;;;;;15.07;4.25;;;12.10;99.90;;;;;;6122674;23;20160;-51
2022/11/07 05:10:20;;;;;;;14.77;4.10;;;12.10;99.90;;;;;;6121599;23;20219;-53
2022/11/07 05:12:46;;;;;;;12.48;4.32;;;12.20;99.90;;;;;;6122398;23;20658;-54
2022/11/07 05:15:12;;;;;;;12.65;4.15;;;12.10;99.90;;;;;;6122040;23;20150;-54
2022/11/07 05:17:37;;;;;;;14.48;4.22;;;12.10;99.90;;;;;;6072623;23;20287;-52
2022/11/07 05:20:03;;;;;;;11.23;3.50;;;12.10;99.90;;;;;;6122535;23;20153;-54
2022/11/07 05:25:33;;;;;;;12.82;3.97;;;12.20;99.90;;;;;;6077936;23;20169;-51
2022/11/07 05:27:58;;;;;;;12.98;4.32;;;12.10;99.90;;;;;;6070962;23;20158;-54
2022/11/07 05:30:24;;;;;;;17.08;4.80;;;12.10;99.90;;;;;;6107500;23;20193;-53
2022/11/07 05:32:49;;;;;;;18.33;4.88;;;12.10;99.90;;;;;;6122844;23;20149;-52
2022/11/07 05:35:15;;;;;;;13.07;4.50;;;12.10;99.90;;;;;;6122458;23;20215;-52
2022/11/07 05:37:41;;;;;;;14.35;4.50;;;12.20;99.90;;;;;;6122723;23;20156;-55
2022/11/07 05:40:07;;;;;;;17.48;4.55;;;12.10;99.90;;;;;;6120088;23;20153;-54
2022/11/07 05:42:32;;;;;;;11.40;4.00;;;12.10;99.90;;;;;;6122582;23;20605;-52
2022/11/07 05:44:58;;;;;;;13.48;4.53;;;12.20;99.90;;;;;;6096785;23;20215;-50
2022/11/07 05:47:24;;;;;;;11.40;4.47;;;12.10;99.90;;;;;;6122297;23;20149;-49
2022/11/07 05:49:49;;;;;;;17.08;5.10;;;12.10;99.90;;;;;;6122759;23;20203;-49
2022/11/07 05:52:15;;;;;;;12.35;4.38;;;12.20;99.90;;;;;;6122385;23;20223;-49
2022/11/07 05:54:41;;;;;;;16.10;4.68;;;12.20;99.90;;;;;;6072831;23;20157;-49
2022/11/07 05:57:06;;;;;;;21.38;5.18;;;12.10;99.90;;;;;;6122666;23;20150;-52
2022/11/07 05:59:32;;;;;;;18.02;5.15;;;12.10;99.90;;;;;;6096913;23;20157;-51
2022/11/07 06:01:57;;;;;;;14.27;4.82;;;12.10;99.90;;;;;;6122937;23;20264;-51
2022/11/07 06:04:23;;;;;;;14.40;4.20;;;12.10;99.90;;;;;;6096790;23;20149;-54
2022/11/07 06:06:54;;;;;;;10.05;3.05;;;12.10;99.90;;;;;;6122422;23;20166;-53
2022/11/07 06:09:20;;;;;;;14.77;4.50;;;12.10;99.90;;;;;;6072700;23;20604;-53
2022/11/07 06:11:46;;;;;;;18.15;5.07;;;12.10;99.90;;;;;;6122556;23;20208;-53
2022/11/07 06:14:11;;;;;;;18.52;5.50;;;12.10;99.90;;;;;;6096795;23;20161;-53
2022/11/07 06:16:37;;;;;;;17.17;5.20;;;12.10;99.90;;;;;;6122899;23;20173;-54
2022/11/07 06:19:03;;;;;;;16.10;5.25;;;12.10;99.90;;;;;;6122189;23;20165;-51
2022/11/07 06:21:29;;;;;;;14.20;4.72;;;12.10;99.90;;;;;;6096541;23;20164;-54
2022/11/07 06:23:54;;;;;;;14.68;4.35;;;12.20;99.90;;;;;;6096627;23;20666;-53
2022/11/07 06:26:20;;;;;;;16.17;4.80;;;12.10;99.90;;;;;;6096454;23;20150;-54
2022/11/07 06:28:46;;;;;;;12.55;4.55;;;12.20;99.90;;;;;;6122357;23;20260;-53
2022/11/07 06:31:12;;;;;;;17.67;4.57;;;12.10;99.90;;;;;;6122432;23;20158;-53
2022/11/07 06:33:38;;;;;;;14.57;4.60;;;12.10;99.90;;;;;;6122131;23;20160;-52
2022/11/07 06:36:09;;;;;;;14.45;4.80;;;12.10;99.90;;;;;;6096621;23;20154;-53
2022/11/07 06:38:35;;;;;;;16.83;5.32;;;12.10;99.90;;;;;;6121918;23;20466;-53
2022/11/07 06:41:10;;;;;;;15.68;4.88;;;12.10;99.90;;;;;;6122294;23;20581;-52
2022/11/07 06:43:36;;;;;;;12.30;4.57;;;12.00;99.90;;;;;;6122667;23;20168;-53
2022/11/07 06:46:04;;;;;;;11.63;4.25;;;12.10;99.90;;;;;;6122244;23;20464;-53
2022/11/07 06:48:30;;;;;;;11.15;4.65;;;12.10;99.90;;;;;;6122149;23;20523;-52
2022/11/07 06:51:00;;;;;;;11.45;4.53;;;12.10;99.90;;;;;;6096471;23;20264;-54
2022/11/07 06:53:27;;;;;;;16.13;5.07;;;12.20;99.90;;;;;;6121973;23;20608;-53
2022/11/07 06:55:53;;;;;;;13.93;4.93;;;12.20;99.90;;;;;;6122196;23;20157;-54
2022/11/07 06:58:20;;;;;;;14.10;4.53;;;12.20;99.90;;;;;;6121799;23;20301;-52
2022/11/07 07:00:45;;;;;;;14.32;4.80;;;12.20;99.90;;;;;;6122056;23;20149;-53
2022/11/07 07:03:11;;;;;;;13.50;4.65;;;12.20;99.90;;;;;;6096367;23;20208;-53
2022/11/07 07:05:37;;;;;;;13.70;4.43;;;12.30;99.90;;;;;;6122301;23;20150;-53
2022/11/07 07:08:04;;;;;;;16.17;4.45;;;12.30;99.90;;;;;;6121685;23;20153;-53
2022/11/07 07:10:34;;;;;;;12.13;4.30;;;12.30;99.90;;;;;;6121956;23;20561;-52
2022/11/07 07:12:59;;;;;;;13.98;4.30;;;12.30;99.90;;;;;;6122054;23;20169;-51
2022/11/07 07:15:25;;;;;;;16.13;4.32;;;12.20;99.90;;;;;;6096300;23;20162;-54
2022/11/07 07:17:51;;;;;;;14.45;4.38;;;12.30;99.90;;;;;;6096190;23;20153;-54
2022/11/07 07:20:16;;;;;;;17.42;4.25;;;12.30;99.90;;;;;;6096270;23;20207;-54
2022/11/07 07:22:43;;;;;;;18.20;4.45;;;12.30;99.90;;;;;;6096344;23;20149;-53
2022/11/07 07:25:10;;;;;;;12.98;4.55;;;12.40;99.90;;;;;;6121879;23;20157;-52
2022/11/07 07:27:36;;;;;;;12.23;4.15;;;12.40;99.90;;;;;;6121864;23;20162;-53
2022/11/07 07:30:01;;;;;;;13.60;4.07;;;12.40;99.90;;;;;;6096157;23;20631;-54
2022/11/07 07:32:27;;;;;;;14.45;4.70;;;12.50;99.90;;;;;;6121982;23;20157;-54
2022/11/07 07:34:53;;;;;;;14.07;4.43;;;12.50;99.90;;;;;;6121804;23;20609;-53
2022/11/07 07:37:19;;;;;;;12.52;4.68;;;12.50;99.90;;;;;;6121406;23;20188;-50
2022/11/07 07:39:44;;;;;;;14.85;4.28;;;12.50;99.90;;;;;;6122639;23;20154;-51
2022/11/07 07:42:10;;;;;;;11.40;4.18;;;12.50;99.90;;;;;;6122912;23;20192;-53
2022/11/07 07:44:35;;;;;;;15.45;4.15;;;12.50;99.90;;;;;;6097174;23;20295;-53
2022/11/07 07:47:01;;;;;;;14.57;4.57;;;12.60;99.90;;;;;;6123271;23;20237;-53
2022/11/07 07:49:27;;;;;;;15.93;4.20;;;12.60;99.90;;;;;;6123249;23;20173;-51
2022/11/07 07:51:53;;;;;;;13.25;4.22;;;12.60;99.90;;;;;;6123191;23;20165;-51
2022/11/07 07:54:19;;;;;;;11.52;4.07;;;12.50;99.90;;;;;;6097506;23;20520;-51
2022/11/07 07:56:44;;;;;;;13.77;4.57;;;12.50;99.90;;;;;;6122831;23;20153;-53
2022/11/07 07:59:10;;;;;;;13.60;4.10;;;12.60;99.90;;;;;;6073416;23;20248;-53
2022/11/07 08:01:36;;;;;;;15.02;4.13;;;12.60;99.90;;;;;;6123153;23;20150;-53
2022/11/07 08:04:02;;;;;;;15.88;4.20;;;12.80;99.90;;;;;;6123165;23;20240;-53
2022/11/07 08:06:27;;;;;;;15.25;4.63;;;12.80;99.90;;;;;;6123195;23;20172;-53
2022/11/07 08:08:53;;;;;;;12.68;4.10;;;12.90;99.90;;;;;;6123034;23;20573;-53
2022/11/07 08:11:18;;;;;;;15.23;3.97;;;12.80;99.90;;;;;;6122761;23;20158;-52
2022/11/07 08:13:44;;;;;;;16.95;4.72;;;12.80;99.90;;;;;;6097030;23;20154;-53
2022/11/07 08:16:10;;;;;;;13.68;3.63;;;12.90;99.90;;;;;;6123165;23;20236;-53
2022/11/07 08:18:38;;;;;;;20.83;4.63;;;12.90;99.90;;;;;;6123084;23;20165;-53
2022/11/07 08:21:04;;;;;;;12.55;4.18;;;13.00;99.90;;;;;;6122991;23;20257;-53
2022/11/07 08:23:30;;;;;;;16.38;4.07;;;12.90;99.90;;;;;;6123000;23;20145;-51
2022/11/07 08:25:58;;;;;;;10.50;4.00;;;12.90;99.90;;;;;;6097443;23;20527;-54
2022/11/07 08:28:29;;;;;;;13.27;3.80;;;12.90;99.90;;;;;;6122798;23;20619;-54
2022/11/07 08:31:01;;;;;;;12.20;4.10;;;13.00;99.90;;;;;;6123051;23;20177;-53
2022/11/07 08:33:28;;;;;;;11.98;4.20;;;13.10;99.90;;;;;;6097157;23;20469;-51
2022/11/07 08:35:55;;;;;;;15.30;3.97;;;13.00;99.90;;;;;;6123061;23;20146;-53
2022/11/07 08:38:21;;;;;;;15.23;4.03;;;13.00;99.90;;;;;;6122957;23;20150;-54
2022/11/07 08:40:48;;;;;;;13.40;4.10;;;13.10;99.90;;;;;;6122957;23;20667;-51
2022/11/07 08:43:15;;;;;;;14.65;4.45;;;13.10;99.90;;;;;;6123007;23;20162;-53
2022/11/07 08:45:42;;;;;;;14.95;4.28;;;13.00;99.90;;;;;;6123003;23;20224;-51
2022/11/07 08:48:07;;;;;;;12.75;3.88;;;13.00;99.90;;;;;;6097242;23;20164;-53
2022/11/07 08:50:33;;;;;;;16.67;4.50;;;13.10;99.90;;;;;;6122824;23;20185;-52
2022/11/07 08:52:59;;;;;;;14.23;4.05;;;13.20;99.90;;;;;;6122945;23;20473;-50
2022/11/07 08:55:24;;;;;;;12.32;4.75;;;13.20;99.90;;;;;;6097263;23;20185;-52
2022/11/07 08:57:50;;;;;;;10.98;4.25;;;13.40;99.90;;;;;;6122531;23;20157;-50
2022/11/07 09:00:16;;;;;;;14.38;4.13;;;13.30;99.90;;;;;;6097306;23;20181;-53
2022/11/07 09:02:42;;;;;;;15.73;4.72;;;13.40;99.90;;;;;;6122838;23;20524;-53
2022/11/07 09:05:08;;;;;;;13.38;4.07;;;13.30;99.90;;;;;;6122844;23;20160;-54
2022/11/07 09:07:37;;;;;;;14.82;4.40;;;13.40;99.90;;;;;;6073235;23;20181;-52
2022/11/07 09:10:03;;;;;;;16.52;4.47;;;13.50;99.90;;;;;;6122785;23;20173;-51
2022/11/07 09:12:29;;;;;;;13.05;4.80;;;13.60;99.90;;;;;;6097040;23;20169;-53
2022/11/07 09:14:54;;;;;;;12.68;4.13;;;13.70;99.90;;;;;;6072989;23;20166;-50
2022/11/07 09:17:20;;;;;;;14.45;4.50;;;13.80;99.90;;;;;;6122823;23;20154;-53
2022/11/07 09:19:45;;;;;;;11.98;4.45;;;13.80;99.90;;;;;;6122492;23;20154;-53
2022/11/07 09:22:11;;;;;;;8.75;4.25;;;13.90;99.90;;;;;;6122819;23;20458;-54
2022/11/07 09:24:37;;;;;;;18.50;4.47;;;13.90;99.90;;;;;;6122544;23;20177;-51
2022/11/07 09:27:02;;;;;;;13.63;3.90;;;14.00;99.90;;;;;;6096930;23;20157;-51
2022/11/07 09:29:28;;;;;;;12.15;4.13;;;14.10;99.90;;;;;;6096998;23;20197;-52
2022/11/07 09:31:54;;;;;;;11.63;3.67;;;14.00;99.90;;;;;;6122788;23;20154;-50
2022/11/07 09:34:19;;;;;;;11.50;3.95;;;14.10;99.90;;;;;;6097081;23;20438;-54
2022/11/07 09:36:45;;;;;;;13.23;4.60;;;14.20;99.90;;;;;;6122777;23;20150;-51
2022/11/07 09:39:11;;;;;;;15.32;4.05;;;14.30;99.90;;;;;;6096549;23;20166;-51
2022/11/07 09:41:54;;;;;;;10.18;3.63;;;14.30;99.90;;;;;;6122763;23;20271;-53
2022/11/07 09:44:26;;;;;;;12.52;4.25;;;14.30;99.90;;;;;;6122500;23;20165;-54
2022/11/07 09:47:15;;;;;;;11.57;3.55;;;14.20;99.90;;;;;;6122359;23;20156;-52
2022/11/07 09:49:54;;;;;;;10.13;3.60;;;14.40;99.90;;;;;;6122742;23;20173;-53
2022/11/07 09:52:46;;;;;;;15.65;4.47;;;14.40;99.90;;;;;;6122334;23;20153;-54
2022/11/07 09:55:12;;;;;;;13.70;4.03;;;14.50;99.90;;;;;;6122887;23;20192;-51
2022/11/07 09:57:38;;;;;;;12.35;4.20;;;14.50;99.90;;;;;;6122705;23;20462;-52
2022/11/07 10:00:10;;;;;;;14.23;4.05;;;14.50;99.90;;;;;;6122698;23;20592;-52
2022/11/07 10:02:42;;;;;;;9.98;3.92;;;14.50;99.90;;;;;;6122179;23;20217;-52
2022/11/07 10:05:21;;;;;;;12.90;3.60;;;14.40;99.90;;;;;;6122627;23;20137;-52
2022/11/07 10:07:54;;;;;;;11.38;3.88;;;14.40;99.90;;;;;;6122668;23;20145;-52
2022/11/07 10:10:48;;;;;;;14.68;3.70;;;14.30;99.90;;;;;;6122544;23;20477;-55
2022/11/07 10:13:37;;;;;;;13.57;3.65;;;14.30;99.90;;;;;;6122644;23;20211;-51
2022/11/07 10:16:11;;;;;;;10.10;3.25;;;14.50;99.90;;;;;;6122674;23;20569;-54
2022/11/07 10:18:51;;;;;;;10.45;3.83;;;14.50;99.90;;;;;;6122612;23;20133;-55
2022/11/07 10:21:25;;;;;;;9.55;3.50;;;14.60;99.90;;;;;;6122619;23;20195;-53
2022/11/07 10:24:21;;;;;;;11.85;3.90;;;14.80;99.90;;;;;;6096762;23;20235;-53
2022/11/07 10:26:47;;;;;;;12.63;3.75;;;14.80;99.90;;;;;;6122219;23;20134;-52
2022/11/07 10:29:23;;;;;;;11.63;3.80;;;14.70;99.90;;;;;;6096556;23;20181;-50
2022/11/07 10:32:04;;;;;;;11.25;3.42;;;14.90;99.90;;;;;;6122623;23;20148;-51
2022/11/07 10:34:35;;;;;;;12.40;3.53;;;14.90;99.90;;;;;;6122429;23;20218;-53
2022/11/07 10:37:01;;;;;;;10.23;3.67;;;14.80;99.90;;;;;;6122656;23;20141;-54
2022/11/07 10:39:29;;;;;;;11.55;3.53;;;14.90;99.90;;;;;;6122370;23;20466;-50
2022/11/07 10:42:08;;;;;;;9.45;3.63;;;14.90;99.90;;;;;;6122369;23;20149;-52
2022/11/07 10:44:35;;;;;;;10.30;3.53;;;14.90;99.90;;;;;;6122452;23;20165;-52
2022/11/07 10:47:02;;;;;;;12.82;3.78;;;14.80;99.90;;;;;;6122213;23;20228;-50
2022/11/07 10:49:31;;;;;;;13.00;3.75;;;14.80;99.90;;;;;;6096618;23;20203;-53
2022/11/07 10:52:14;;;;;;;9.77;3.72;;;14.90;99.90;;;;;;6122266;23;20161;-50
2022/11/07 10:54:40;;;;;;;9.48;3.40;;;14.90;99.90;;;;;;6122249;23;20152;-51
2022/11/07 10:57:09;;;;;;;8.38;3.33;;;15.00;99.90;;;;;;6122309;23;20154;-51
2022/11/07 10:59:37;;;;;;;10.45;3.55;;;14.90;99.90;;;;;;6096016;23;20187;-50
2022/11/07 11:02:23;;;;;;;13.00;3.25;;;15.00;99.90;;;;;;6122159;23;20581;-51
2022/11/07 11:04:55;;;;;;;15.73;3.58;;;14.90;99.90;;;;;;6122164;23;20224;-50
2022/11/07 11:07:24;;;;;;;10.20;3.70;;;14.90;99.90;;;;;;6122124;23;20150;-53
2022/11/07 11:09:54;;;;;;;11.80;3.70;;;15.10;99.90;;;;;;6121927;23;20169;-52
2022/11/07 11:12:44;;;;;;;12.05;3.47;;;15.20;99.90;;;;;;6122068;23;20150;-52
2022/11/07 11:15:13;;;;;;;11.05;3.53;;;15.30;99.90;;;;;;6123163;23;20145;-52
2022/11/07 11:17:39;;;;;;;11.07;3.55;;;15.40;99.90;;;;;;6123592;23;20154;-54
2022/11/07 11:20:22;;;;;;;8.70;3.03;;;15.40;99.90;;;;;;6123370;23;20157;-53
2022/11/07 11:22:47;;;;;;;11.15;3.50;;;15.30;99.90;;;;;;6123345;23;20142;-53
2022/11/07 11:25:19;;;;;;;12.68;4.03;;;15.20;99.90;;;;;;6097405;23;20158;-54
2022/11/07 11:27:47;;;;;;;9.43;3.45;;;15.20;99.90;;;;;;6123272;23;20161;-54
2022/11/07 11:30:20;;;;;;;11.93;3.60;;;15.20;99.90;;;;;;6123184;23;20272;-53
2022/11/07 11:33:10;;;;;;;10.38;3.13;;;15.10;99.90;;;;;;6097287;23;20153;-52
2022/11/07 11:35:54;;;;;;;8.05;3.15;;;15.10;99.90;;;;;;6123459;23;20141;-53
2022/11/07 11:38:24;;;;;;;11.23;3.25;;;15.10;99.90;;;;;;6123257;23;20172;-53
2022/11/07 11:40:55;;;;;;;11.95;3.40;;;15.00;99.90;;;;;;6123378;23;20142;-50
2022/11/07 11:43:23;;;;;;;11.15;3.72;;;14.90;99.90;;;;;;6122787;23;20553;-53
2022/11/07 11:45:55;;;;;;;9.07;3.17;;;14.90;99.90;;;;;;6123204;23;20618;-50
2022/11/07 11:48:50;;;;;;;11.98;3.38;;;14.90;99.90;;;;;;6123216;23;20576;-53
2022/11/07 11:51:31;;;;;;;12.15;3.17;;;14.90;99.90;;;;;;6122890;23;20652;-52
2022/11/07 11:53:57;;;;;;;10.23;3.20;;;15.00;99.90;;;;;;6122983;23;20172;-50
2022/11/07 11:56:37;;;;;;;12.70;3.60;;;15.00;99.90;;;;;;6097134;23;20154;-54
2022/11/07 11:59:15;;;;;;;10.55;2.97;;;15.00;99.90;;;;;;6123325;23;20150;-52
2022/11/07 12:02:00;;;;;;;10.65;3.58;;;15.00;99.90;;;;;;6123464;23;20495;-51
2022/11/07 12:04:48;;;;;;;9.27;3.78;;;15.00;99.90;;;;;;6123230;23;20141;-53
2022/11/07 12:07:24;;;;;;;9.63;3.20;;;14.90;99.90;;;;;;6123372;23;20137;-53
2022/11/07 12:10:16;;;;;;;12.50;3.25;;;14.90;99.90;;;;;;6097278;23;20226;-51
2022/11/07 12:12:50;;;;;;;10.43;3.15;;;14.90;99.90;;;;;;6121558;23;20165;-52
2022/11/07 12:15:40;;;;;;;11.13;3.28;;;14.80;99.90;;;;;;6122865;23;20576;-52
2022/11/07 12:18:20;;;;;;;13.05;3.50;;;15.00;99.90;;;;;;6122738;23;20659;-52
2022/11/07 12:21:04;;;;;;;10.65;4.10;;;14.90;99.90;;;;;;6097282;23;20184;-53
2022/11/07 12:23:42;;;;;;;11.27;3.13;;;15.00;99.90;;;;;;6122802;23;20141;-53
2022/11/07 12:26:38;;;;;;;10.80;3.17;;;14.90;99.90;;;;;;6122840;23;20134;-54
2022/11/07 12:29:22;;;;;;;9.65;3.15;;;14.90;99.90;;;;;;6122418;23;20621;-51
2022/11/07 12:31:56;;;;;;;8.40;2.78;;;14.90;99.90;;;;;;6122956;23;20138;-52
2022/11/07 12:34:22;;;;;;;11.38;3.17;;;15.00;99.90;;;;;;6123118;23;20137;-50
2022/11/07 12:37:18;;;;;;;8.57;3.00;;;14.90;99.90;;;;;;6122697;23;20300;-50
2022/11/07 12:39:50;;;;;;;7.82;2.70;;;14.90;99.90;;;;;;6123175;23;20185;-53
2022/11/07 12:42:33;;;;;;;10.75;2.67;;;15.10;99.90;;;;;;6123082;23;20816;-54
2022/11/07 12:45:14;;;;;;;10.00;3.08;;;15.30;99.90;;;;;;6122476;23;20177;-53
2022/11/07 12:48:19;;;;;;;12.38;3.03;;;15.30;99.90;;;;;;6123057;23;20142;-53
2022/11/07 12:51:14;;;;;;;9.57;2.78;;;15.40;99.90;;;;;;6096989;23;20256;-53
2022/11/07 12:54:27;;;;;;;8.68;2.90;;;15.50;99.90;;;;;;6122956;23;20158;-54
2022/11/07 12:56:55;;;;;;;8.00;2.97;;;15.50;99.90;;;;;;6073466;23;20202;-53
2022/11/07 12:59:25;;;;;;;7.35;2.70;;;15.50;99.90;;;;;;6122885;23;20187;-52
2022/11/07 13:01:57;;;;;;;8.60;2.67;;;15.30;99.90;;;;;;6123837;23;20153;-51
2022/11/07 13:04:38;;;;;;;7.32;2.85;;;15.40;99.90;;;;;;6122912;23;20137;-53